Time;durP1;ratioP1;P1;durP2;ratioP2;P2;SDS_P1;SDS_P2;PMS_P1;PMS_P2;Temp;Humidity;BMP_temperature;BMP_pressure;BME280_temperature;BME280_humidity;BME280_pressure;Samples;Min_cycle;Max_cycle;Signal;HPM_P1;HPM_P2
2023/09/06 00:00:51;;;;;;;11.15;5.65;;;;;;;;;;2089905;28;20044;-54
2023/09/06 00:01:52;;;;;;;7.57;5.32;;;;;;;;;;2089031;28;20052;-55
2023/09/06 00:02:53;;;;;;;6.78;4.88;;;;;;;;;;2089818;28;20052;-55
2023/09/06 00:03:55;;;;;;;8.07;5.32;;;;;;;;;;2089585;28;20049;-55
2023/09/06 00:04:56;;;;;;;7.43;4.80;;;;;;;;;;2089893;28;20029;-53
2023/09/06 00:05:59;;;;;;;7.07;5.00;;;;;;;;;;2089917;28;20052;-53
2023/09/06 00:07:00;;;;;;;8.57;5.10;;;;;;;;;;2089585;28;20393;-54
2023/09/06 00:08:05;;;;;;;11.63;5.72;;;;;;;;;;2089852;28;20048;-55
2023/09/06 00:09:06;;;;;;;7.72;5.60;;;;;;;;;;2090824;28;20041;-54
2023/09/06 00:10:07;;;;;;;9.30;5.63;;;;;;;;;;2091389;28;20361;-55
2023/09/06 00:11:07;;;;;;;7.80;5.50;;;;;;;;;;2091696;28;20057;-55
2023/09/06 00:12:08;;;;;;;7.28;5.20;;;;;;;;;;2091457;28;20041;-55
2023/09/06 00:13:09;;;;;;;8.85;5.72;;;;;;;;;;2090392;28;20041;-55
2023/09/06 00:14:12;;;;;;;8.10;5.53;;;;;;;;;;2090842;28;20041;-55
2023/09/06 00:15:13;;;;;;;9.40;5.43;;;;;;;;;;2091116;28;20044;-55
2023/09/06 00:16:15;;;;;;;7.05;5.13;;;;;;;;;;2091415;28;20053;-54
2023/09/06 00:17:16;;;;;;;9.02;5.65;;;;;;;;;;2091285;28;20037;-53
2023/09/06 00:18:17;;;;;;;8.60;5.18;;;;;;;;;;2091624;28;20041;-55
2023/09/06 00:19:17;;;;;;;8.95;5.00;;;;;;;;;;2091059;28;20458;-54
2023/09/06 00:20:22;;;;;;;7.95;5.55;;;;;;;;;;2091331;28;20037;-55
2023/09/06 00:21:24;;;;;;;8.73;5.20;;;;;;;;;;2091306;28;20045;-54
2023/09/06 00:22:24;;;;;;;8.65;5.75;;;;;;;;;;2091292;28;20033;-54
2023/09/06 00:23:25;;;;;;;8.82;5.45;;;;;;;;;;2091823;28;20041;-55
2023/09/06 00:24:26;;;;;;;9.52;6.10;;;;;;;;;;2091059;28;20105;-55
2023/09/06 00:25:27;;;;;;;9.25;6.20;;;;;;;;;;2091426;28;20397;-55
2023/09/06 00:26:28;;;;;;;10.23;5.60;;;;;;;;;;2091753;28;20044;-55
2023/09/06 00:27:28;;;;;;;7.63;5.68;;;;;;;;;;2091288;28;20048;-53
2023/09/06 00:28:29;;;;;;;9.82;5.55;;;;;;;;;;2090445;28;20037;-55
2023/09/06 00:29:32;;;;;;;8.93;5.88;;;;;;;;;;2090358;28;20446;-55
2023/09/06 00:30:33;;;;;;;7.65;5.55;;;;;;;;;;2090050;28;20045;-55
2023/09/06 00:31:34;;;;;;;8.27;5.68;;;;;;;;;;2090355;28;20052;-54
2023/09/06 00:32:35;;;;;;;7.38;5.20;;;;;;;;;;2090361;28;20464;-55
2023/09/06 00:33:35;;;;;;;10.48;5.85;;;;;;;;;;2091212;28;20033;-55
2023/09/06 00:34:36;;;;;;;7.97;5.68;;;;;;;;;;2091255;28;20365;-54
2023/09/06 00:35:40;;;;;;;7.97;5.85;;;;;;;;;;2090937;28;20044;-55
2023/09/06 00:36:40;;;;;;;7.75;5.03;;;;;;;;;;2091118;28;20041;-54
2023/09/06 00:37:41;;;;;;;9.00;5.72;;;;;;;;;;2090872;28;20400;-54
2023/09/06 00:38:42;;;;;;;8.30;6.03;;;;;;;;;;2091152;28;20021;-54
2023/09/06 00:39:43;;;;;;;7.63;5.35;;;;;;;;;;2091153;28;20053;-54
2023/09/06 00:40:48;;;;;;;7.60;5.40;;;;;;;;;;2091496;28;20049;-55
2023/09/06 00:41:48;;;;;;;9.32;5.50;;;;;;;;;;2091119;28;20369;-53
2023/09/06 00:42:50;;;;;;;8.93;5.80;;;;;;;;;;2090484;28;20036;-54
2023/09/06 00:43:51;;;;;;;9.30;5.72;;;;;;;;;;2090800;28;20048;-54
2023/09/06 00:44:51;;;;;;;7.50;5.65;;;;;;;;;;2090685;28;20409;-56
2023/09/06 00:45:53;;;;;;;10.57;7.00;;;;;;;;;;2090332;28;20029;-55
2023/09/06 00:46:54;;;;;;;7.95;5.78;;;;;;;;;;2090216;28;20441;-56
2023/09/06 00:47:55;;;;;;;9.63;6.10;;;;;;;;;;2091124;28;20112;-53
2023/09/06 00:48:56;;;;;;;9.88;6.18;;;;;;;;;;2090793;28;20041;-53
2023/09/06 00:49:57;;;;;;;8.60;6.53;;;;;;;;;;2091106;28;20049;-52
2023/09/06 00:50:57;;;;;;;9.35;6.45;;;;;;;;;;2090143;28;20639;-53
2023/09/06 00:51:58;;;;;;;10.57;6.10;;;;;;;;;;2090214;28;20052;-53
2023/09/06 00:52:59;;;;;;;9.57;6.43;;;;;;;;;;2091034;28;20033;-54
2023/09/06 00:54:00;;;;;;;9.68;6.32;;;;;;;;;;2091042;28;20025;-53
2023/09/06 00:55:01;;;;;;;8.70;6.05;;;;;;;;;;2090111;28;20114;-53
2023/09/06 00:56:08;;;;;;;9.30;7.22;;;;;;;;;;2090525;28;20041;-53
2023/09/06 00:57:09;;;;;;;8.23;6.20;;;;;;;;;;2082152;28;20041;-55
2023/09/06 00:58:12;;;;;;;8.45;5.88;;;;;;;;;;2074379;28;20545;-52
2023/09/06 00:59:13;;;;;;;8.65;6.10;;;;;;;;;;2082577;28;20056;-54
2023/09/06 01:00:17;;;;;;;10.38;6.15;;;;;;;;;;2090234;28;20049;-52
2023/09/06 01:01:18;;;;;;;8.15;6.18;;;;;;;;;;2097859;28;20044;-54
2023/09/06 01:02:19;;;;;;;10.38;6.82;;;;;;;;;;2090580;28;20037;-54
2023/09/06 01:03:20;;;;;;;9.40;6.10;;;;;;;;;;2089864;28;20500;-53
2023/09/06 01:04:20;;;;;;;10.32;7.03;;;;;;;;;;2090962;28;20053;-54
2023/09/06 01:05:22;;;;;;;9.35;5.88;;;;;;;;;;2090362;28;20041;-52
2023/09/06 01:06:26;;;;;;;12.73;6.28;;;;;;;;;;2090612;28;20032;-55
2023/09/06 01:07:28;;;;;;;7.85;5.90;;;;;;;;;;2090317;28;20037;-53
2023/09/06 01:08:29;;;;;;;9.48;6.22;;;;;;;;;;2090394;28;20535;-54
2023/09/06 01:09:30;;;;;;;9.65;5.82;;;;;;;;;;2090128;28;20045;-55
2023/09/06 01:10:33;;;;;;;9.20;5.85;;;;;;;;;;2090495;28;20029;-53
2023/09/06 01:11:37;;;;;;;7.68;6.10;;;;;;;;;;2090912;28;20052;-55
2023/09/06 01:12:38;;;;;;;11.48;6.30;;;;;;;;;;2090940;28;20053;-56
2023/09/06 01:13:38;;;;;;;7.60;5.90;;;;;;;;;;2090633;28;20492;-55
2023/09/06 01:14:41;;;;;;;10.55;5.93;;;;;;;;;;2090973;28;20519;-54
2023/09/06 01:15:42;;;;;;;9.48;5.90;;;;;;;;;;2091044;28;20033;-55
2023/09/06 01:16:45;;;;;;;7.43;5.60;;;;;;;;;;2090053;28;20036;-53
2023/09/06 01:17:46;;;;;;;8.82;5.78;;;;;;;;;;2090340;28;20049;-55
2023/09/06 01:18:46;;;;;;;9.40;6.38;;;;;;;;;;2090422;28;20052;-54
2023/09/06 01:19:50;;;;;;;10.15;6.15;;;;;;;;;;2089921;28;20081;-54
2023/09/06 01:20:51;;;;;;;11.00;6.00;;;;;;;;;;2082105;28;20048;-55
2023/09/06 01:21:59;;;;;;;8.40;6.22;;;;;;;;;;2073763;28;20050;-55
2023/09/06 01:23:04;;;;;;;9.60;6.43;;;;;;;;;;2075759;28;20049;-54
2023/09/06 01:24:05;;;;;;;11.27;6.18;;;;;;;;;;2082482;28;20037;-53
2023/09/06 01:25:08;;;;;;;9.48;5.63;;;;;;;;;;2074168;28;20494;-54
2023/09/06 01:26:08;;;;;;;8.50;5.85;;;;;;;;;;2082210;28;20045;-53
2023/09/06 01:27:09;;;;;;;7.53;5.10;;;;;;;;;;2073937;28;20056;-54
2023/09/06 01:28:10;;;;;;;7.22;5.68;;;;;;;;;;2081827;28;20509;-55
2023/09/06 01:29:11;;;;;;;7.40;5.25;;;;;;;;;;2081626;28;20052;-54
2023/09/06 01:30:12;;;;;;;9.77;6.05;;;;;;;;;;2082153;28;20063;-54
2023/09/06 01:31:12;;;;;;;8.95;6.45;;;;;;;;;;2081843;28;20038;-54
2023/09/06 01:32:13;;;;;;;9.80;5.90;;;;;;;;;;2089797;28;20033;-53
2023/09/06 01:33:16;;;;;;;9.43;5.90;;;;;;;;;;2089955;28;20418;-54
2023/09/06 01:34:16;;;;;;;8.35;6.20;;;;;;;;;;2082274;28;20037;-54
2023/09/06 01:35:17;;;;;;;10.65;6.50;;;;;;;;;;2090186;28;20390;-54
2023/09/06 01:36:18;;;;;;;7.90;5.97;;;;;;;;;;2090670;28;20033;-54
2023/09/06 01:37:19;;;;;;;8.82;6.07;;;;;;;;;;2090789;28;20083;-55
2023/09/06 01:38:19;;;;;;;8.73;6.10;;;;;;;;;;2090679;28;20048;-55
2023/09/06 01:39:20;;;;;;;9.95;6.35;;;;;;;;;;2090078;28;20504;-54
2023/09/06 01:40:21;;;;;;;8.25;5.80;;;;;;;;;;2090363;28;20032;-53
2023/09/06 01:41:22;;;;;;;9.30;6.40;;;;;;;;;;2090243;28;20036;-54
2023/09/06 01:42:24;;;;;;;8.15;6.40;;;;;;;;;;2089814;28;20087;-54
2023/09/06 01:43:24;;;;;;;12.38;6.80;;;;;;;;;;2090328;28;20511;-53
2023/09/06 01:44:26;;;;;;;7.53;6.13;;;;;;;;;;2090187;28;20017;-55
2023/09/06 01:45:29;;;;;;;7.90;6.10;;;;;;;;;;2090091;28;20049;-53
2023/09/06 01:46:29;;;;;;;8.57;6.93;;;;;;;;;;2089450;28;20060;-53
2023/09/06 01:47:30;;;;;;;8.25;6.85;;;;;;;;;;2089696;28;20048;-55
2023/09/06 01:48:32;;;;;;;8.80;6.50;;;;;;;;;;2090025;28;20124;-54
2023/09/06 01:49:33;;;;;;;8.75;6.72;;;;;;;;;;2090379;28;20045;-54
2023/09/06 01:50:34;;;;;;;10.38;7.57;;;;;;;;;;2090573;28;20041;-53
2023/09/06 01:51:34;;;;;;;11.00;7.03;;;;;;;;;;2090968;28;20048;-54
2023/09/06 01:52:36;;;;;;;9.38;7.03;;;;;;;;;;2090331;28;20049;-55
2023/09/06 01:53:38;;;;;;;10.45;7.05;;;;;;;;;;2090556;28;20040;-53
2023/09/06 01:54:39;;;;;;;9.43;7.50;;;;;;;;;;2090576;28;20044;-55
2023/09/06 01:55:43;;;;;;;8.50;6.90;;;;;;;;;;2090585;28;20392;-54
2023/09/06 01:56:43;;;;;;;11.25;7.65;;;;;;;;;;2090209;28;20449;-55
2023/09/06 01:57:44;;;;;;;10.80;6.68;;;;;;;;;;2081736;28;20040;-54
2023/09/06 01:58:46;;;;;;;8.73;7.03;;;;;;;;;;2089084;28;20045;-55
2023/09/06 01:59:50;;;;;;;11.45;7.07;;;;;;;;;;2089340;28;20040;-54
2023/09/06 02:00:51;;;;;;;10.40;6.53;;;;;;;;;;2089727;28;20048;-56
2023/09/06 02:01:54;;;;;;;9.05;6.65;;;;;;;;;;2088997;28;20045;-56
2023/09/06 02:02:55;;;;;;;11.88;6.63;;;;;;;;;;2081820;28;20025;-55
2023/09/06 02:03:56;;;;;;;8.65;6.43;;;;;;;;;;2089656;28;20040;-55
2023/09/06 02:04:56;;;;;;;9.13;6.60;;;;;;;;;;2089751;28;20037;-55
2023/09/06 02:05:57;;;;;;;10.38;7.10;;;;;;;;;;2089841;28;20039;-55
2023/09/06 02:06:58;;;;;;;10.25;6.10;;;;;;;;;;2090326;28;20048;-55
2023/09/06 02:07:59;;;;;;;10.13;6.95;;;;;;;;;;2089672;28;20045;-55
2023/09/06 02:08:59;;;;;;;11.23;6.32;;;;;;;;;;2089496;28;20496;-54
2023/09/06 02:10:00;;;;;;;11.80;6.70;;;;;;;;;;2089846;28;20028;-54
2023/09/06 02:11:01;;;;;;;9.40;6.22;;;;;;;;;;2090733;28;20041;-54
2023/09/06 02:12:02;;;;;;;10.85;6.72;;;;;;;;;;2089856;28;20044;-56
2023/09/06 02:13:03;;;;;;;9.32;6.60;;;;;;;;;;2089826;28;20099;-55
2023/09/06 02:14:03;;;;;;;9.93;7.22;;;;;;;;;;2089783;28;20036;-55
2023/09/06 02:15:05;;;;;;;9.40;6.68;;;;;;;;;;2089553;28;20056;-54
2023/09/06 02:16:06;;;;;;;10.80;6.68;;;;;;;;;;2089790;28;20049;-55
2023/09/06 02:17:07;;;;;;;9.40;6.60;;;;;;;;;;2089789;28;20044;-54
2023/09/06 02:18:09;;;;;;;8.93;6.38;;;;;;;;;;2081567;28;20398;-54
2023/09/06 02:19:09;;;;;;;10.93;6.47;;;;;;;;;;2089389;28;20053;-55
2023/09/06 02:20:17;;;;;;;10.02;7.43;;;;;;;;;;2089517;28;20378;-55
2023/09/06 02:21:18;;;;;;;10.80;7.38;;;;;;;;;;2090559;28;20032;-55
2023/09/06 02:22:18;;;;;;;9.80;6.70;;;;;;;;;;2090339;28;20049;-55
2023/09/06 02:23:19;;;;;;;10.63;6.82;;;;;;;;;;2090425;28;20098;-56
2023/09/06 02:24:20;;;;;;;12.50;7.35;;;;;;;;;;2090075;28;20473;-56
2023/09/06 02:25:21;;;;;;;11.40;7.18;;;;;;;;;;2089943;28;20044;-55
2023/09/06 02:26:22;;;;;;;9.85;7.07;;;;;;;;;;2089717;28;20040;-55
2023/09/06 02:27:23;;;;;;;10.73;7.40;;;;;;;;;;2090359;28;20468;-55
2023/09/06 02:28:23;;;;;;;11.85;6.93;;;;;;;;;;2090293;28;20541;-55
2023/09/06 02:29:27;;;;;;;10.25;6.47;;;;;;;;;;2090365;28;20401;-55
2023/09/06 02:30:28;;;;;;;8.80;6.32;;;;;;;;;;2090297;28;20397;-55
2023/09/06 02:31:29;;;;;;;12.43;6.57;;;;;;;;;;2090190;28;20033;-55
2023/09/06 02:32:31;;;;;;;10.35;7.13;;;;;;;;;;2090280;28;20029;-54
2023/09/06 02:33:32;;;;;;;11.60;7.57;;;;;;;;;;2090304;28;20411;-54
2023/09/06 02:34:33;;;;;;;9.70;6.78;;;;;;;;;;2089965;28;20036;-55
2023/09/06 02:35:35;;;;;;;11.55;6.63;;;;;;;;;;2089658;28;20500;-55
2023/09/06 02:36:35;;;;;;;10.20;6.72;;;;;;;;;;2090007;28;20401;-54
2023/09/06 02:37:36;;;;;;;11.10;6.47;;;;;;;;;;2089952;28;20045;-56
2023/09/06 02:38:37;;;;;;;9.52;6.57;;;;;;;;;;2090034;28;20052;-54
2023/09/06 02:39:38;;;;;;;10.57;7.35;;;;;;;;;;2089860;28;20036;-55
2023/09/06 02:40:42;;;;;;;9.32;6.80;;;;;;;;;;2089653;28;20080;-55
2023/09/06 02:41:43;;;;;;;10.68;6.75;;;;;;;;;;2089900;28;20500;-57
2023/09/06 02:42:44;;;;;;;10.05;7.07;;;;;;;;;;2090273;28;20036;-54
2023/09/06 02:43:44;;;;;;;10.75;7.45;;;;;;;;;;2089668;28;20068;-55
2023/09/06 02:44:46;;;;;;;9.10;6.80;;;;;;;;;;2089638;28;20033;-53
2023/09/06 02:45:49;;;;;;;10.80;7.03;;;;;;;;;;2090524;28;20040;-55
2023/09/06 02:46:53;;;;;;;10.20;7.25;;;;;;;;;;2090280;28;20028;-54
2023/09/06 02:47:53;;;;;;;9.52;6.95;;;;;;;;;;2090235;28;20477;-52
2023/09/06 02:48:58;;;;;;;9.02;7.10;;;;;;;;;;2090173;28;20025;-54
2023/09/06 02:49:59;;;;;;;11.25;7.28;;;;;;;;;;2090195;28;20108;-53
2023/09/06 02:51:00;;;;;;;8.55;7.00;;;;;;;;;;2090225;28;20045;-53
2023/09/06 02:52:01;;;;;;;10.68;7.38;;;;;;;;;;2090162;28;20049;-53
2023/09/06 02:53:03;;;;;;;9.40;7.28;;;;;;;;;;2089841;28;20045;-54
2023/09/06 02:54:03;;;;;;;10.20;7.88;;;;;;;;;;2089834;28;20045;-53
2023/09/06 02:55:10;;;;;;;10.15;6.93;;;;;;;;;;2081074;28;20120;-54
2023/09/06 02:56:13;;;;;;;10.68;7.03;;;;;;;;;;2089112;28;20049;-53
2023/09/06 02:57:16;;;;;;;12.73;7.25;;;;;;;;;;2090179;28;20029;-55
2023/09/06 02:58:18;;;;;;;10.25;7.00;;;;;;;;;;2089536;28;20043;-55
2023/09/06 02:59:19;;;;;;;15.52;8.90;;;;;;;;;;2089671;28;20047;-54
2023/09/06 03:00:26;;;;;;;12.80;7.47;;;;;;;;;;2089594;28;20044;-54
2023/09/06 03:01:26;;;;;;;11.43;7.50;;;;;;;;;;2097417;28;20047;-54
2023/09/06 03:02:27;;;;;;;11.23;7.65;;;;;;;;;;2089668;28;20488;-53
2023/09/06 03:03:28;;;;;;;10.23;7.30;;;;;;;;;;2081294;28;20033;-56
2023/09/06 03:04:34;;;;;;;12.73;7.00;;;;;;;;;;2089236;28;20127;-54
2023/09/06 03:05:41;;;;;;;12.45;7.47;;;;;;;;;;2082016;28;20042;-55
2023/09/06 03:06:43;;;;;;;10.15;7.03;;;;;;;;;;2081977;28;20056;-54
2023/09/06 03:07:48;;;;;;;9.93;7.10;;;;;;;;;;2089483;28;20051;-54
2023/09/06 03:08:51;;;;;;;10.35;6.80;;;;;;;;;;2081607;28;20034;-54
2023/09/06 03:09:51;;;;;;;12.48;7.82;;;;;;;;;;2081415;28;20424;-55
2023/09/06 03:10:52;;;;;;;11.88;7.72;;;;;;;;;;2080969;28;20033;-54
2023/09/06 03:11:53;;;;;;;10.85;7.45;;;;;;;;;;2081761;28;20048;-54
2023/09/06 03:12:57;;;;;;;12.90;7.88;;;;;;;;;;2081233;28;20083;-54
2023/09/06 03:14:02;;;;;;;9.52;7.50;;;;;;;;;;2089763;28;20041;-54
2023/09/06 03:15:03;;;;;;;10.80;7.30;;;;;;;;;;2081550;28;20064;-55
2023/09/06 03:16:04;;;;;;;9.32;7.05;;;;;;;;;;2081371;28;20038;-55
2023/09/06 03:17:08;;;;;;;11.13;7.68;;;;;;;;;;2089576;28;20044;-55
2023/09/06 03:18:10;;;;;;;10.38;7.18;;;;;;;;;;2089127;28;20041;-55
2023/09/06 03:19:12;;;;;;;13.52;7.40;;;;;;;;;;2081220;28;20034;-53
2023/09/06 03:20:19;;;;;;;11.57;7.70;;;;;;;;;;2089470;28;20037;-55
2023/09/06 03:21:20;;;;;;;12.15;7.40;;;;;;;;;;2089498;28;20531;-56
2023/09/06 03:22:25;;;;;;;12.85;7.85;;;;;;;;;;2089422;28;20084;-53
2023/09/06 03:23:26;;;;;;;10.13;7.13;;;;;;;;;;2089443;28;20041;-55
2023/09/06 03:24:29;;;;;;;12.45;7.82;;;;;;;;;;2081549;28;20048;-56
2023/09/06 03:25:32;;;;;;;10.95;8.63;;;;;;;;;;2089156;28;20075;-55
2023/09/06 03:26:33;;;;;;;11.63;8.18;;;;;;;;;;2089633;28;20044;-54
2023/09/06 03:27:35;;;;;;;13.18;8.45;;;;;;;;;;2089074;28;20052;-55
2023/09/06 03:28:42;;;;;;;11.45;8.15;;;;;;;;;;2089244;28;20047;-55
2023/09/06 03:29:50;;;;;;;10.73;8.00;;;;;;;;;;2090101;28;20045;-54
2023/09/06 03:30:52;;;;;;;10.80;8.30;;;;;;;;;;2089427;28;20029;-54
2023/09/06 03:31:53;;;;;;;12.45;8.57;;;;;;;;;;2081479;28;20033;-55
2023/09/06 03:32:54;;;;;;;13.00;8.18;;;;;;;;;;2088744;28;20067;-54
2023/09/06 03:33:56;;;;;;;11.75;9.05;;;;;;;;;;2089615;28;20503;-55
2023/09/06 03:34:57;;;;;;;13.20;9.00;;;;;;;;;;2081291;28;20445;-55
2023/09/06 03:35:57;;;;;;;12.45;8.73;;;;;;;;;;2080865;28;20037;-55
2023/09/06 03:36:58;;;;;;;13.65;7.82;;;;;;;;;;2081007;28;20073;-55
2023/09/06 03:37:59;;;;;;;9.02;7.65;;;;;;;;;;2089677;28;20033;-53
2023/09/06 03:39:00;;;;;;;13.93;8.20;;;;;;;;;;2089411;28;20324;-53
2023/09/06 03:40:12;;;;;;;12.07;8.13;;;;;;;;;;2081200;28;20037;-54
2023/09/06 03:41:13;;;;;;;11.82;8.50;;;;;;;;;;2082314;28;20041;-55
2023/09/06 03:42:15;;;;;;;12.15;8.30;;;;;;;;;;2088967;28;20504;-54
2023/09/06 03:43:16;;;;;;;13.43;9.00;;;;;;;;;;2088834;28;20045;-56
2023/09/06 03:44:17;;;;;;;11.50;8.25;;;;;;;;;;2090223;28;20045;-54
2023/09/06 03:45:21;;;;;;;9.95;7.93;;;;;;;;;;2090938;28;20033;-55
2023/09/06 03:46:22;;;;;;;15.43;8.48;;;;;;;;;;2090404;28;20045;-55
2023/09/06 03:47:24;;;;;;;12.35;8.25;;;;;;;;;;2091260;28;20401;-56
2023/09/06 03:48:27;;;;;;;10.73;7.78;;;;;;;;;;2090638;28;20049;-56
2023/09/06 03:49:27;;;;;;;10.02;8.07;;;;;;;;;;2091650;28;20041;-54
2023/09/06 03:50:28;;;;;;;13.10;8.73;;;;;;;;;;2091078;28;20048;-53
2023/09/06 03:51:29;;;;;;;10.85;7.97;;;;;;;;;;2090908;28;20418;-54
2023/09/06 03:52:29;;;;;;;12.77;8.52;;;;;;;;;;2091180;28;20491;-54
2023/09/06 03:53:31;;;;;;;13.30;8.77;;;;;;;;;;2091265;28;20041;-55
2023/09/06 03:54:34;;;;;;;11.88;8.27;;;;;;;;;;2091522;28;20053;-55
2023/09/06 03:55:37;;;;;;;12.88;7.72;;;;;;;;;;2090604;28;20059;-56
2023/09/06 03:56:39;;;;;;;11.57;8.88;;;;;;;;;;2090988;28;20052;-55
2023/09/06 03:57:40;;;;;;;12.63;8.85;;;;;;;;;;2090618;28;20525;-55
2023/09/06 03:58:42;;;;;;;11.95;9.10;;;;;;;;;;2090783;28;20053;-56
2023/09/06 03:59:44;;;;;;;10.88;8.07;;;;;;;;;;2090636;28;20048;-55
2023/09/06 04:00:47;;;;;;;10.23;8.00;;;;;;;;;;2082723;28;20084;-56
2023/09/06 04:01:56;;;;;;;12.50;9.20;;;;;;;;;;2090619;28;20036;-55
2023/09/06 04:02:57;;;;;;;11.93;9.15;;;;;;;;;;2090257;28;20500;-54
2023/09/06 04:04:00;;;;;;;12.52;8.68;;;;;;;;;;2082821;28;20037;-56
2023/09/06 04:05:01;;;;;;;12.43;8.95;;;;;;;;;;2090159;28;20049;-54
2023/09/06 04:06:03;;;;;;;11.93;8.85;;;;;;;;;;2089883;28;20076;-55
2023/09/06 04:07:06;;;;;;;12.35;9.13;;;;;;;;;;2082716;28;20448;-54
2023/09/06 04:08:07;;;;;;;15.60;9.23;;;;;;;;;;2090811;28;20033;-54
2023/09/06 04:09:12;;;;;;;12.55;9.55;;;;;;;;;;2082665;28;20041;-55
2023/09/06 04:10:16;;;;;;;12.73;8.85;;;;;;;;;;2083303;28;20033;-55
2023/09/06 04:11:17;;;;;;;11.77;9.38;;;;;;;;;;2090808;28;20044;-56
2023/09/06 04:12:17;;;;;;;12.48;9.02;;;;;;;;;;2091391;28;20397;-55
2023/09/06 04:13:18;;;;;;;10.48;8.32;;;;;;;;;;2090748;28;20033;-55
2023/09/06 04:14:22;;;;;;;12.07;8.68;;;;;;;;;;2090799;28;20037;-54
2023/09/06 04:15:24;;;;;;;12.02;9.00;;;;;;;;;;2090633;28;20048;-54
2023/09/06 04:16:25;;;;;;;11.50;8.75;;;;;;;;;;2090755;28;20417;-54
2023/09/06 04:17:27;;;;;;;11.27;8.43;;;;;;;;;;2098660;28;20037;-55
2023/09/06 04:18:28;;;;;;;13.45;9.15;;;;;;;;;;2090126;28;20045;-54
2023/09/06 04:19:29;;;;;;;12.10;9.25;;;;;;;;;;2082429;28;20037;-54
2023/09/06 04:20:35;;;;;;;12.48;9.70;;;;;;;;;;2082531;28;20037;-54
2023/09/06 04:21:37;;;;;;;11.35;8.90;;;;;;;;;;2082859;28;20501;-56
2023/09/06 04:22:38;;;;;;;13.48;9.82;;;;;;;;;;2082483;28;20037;-56
2023/09/06 04:23:40;;;;;;;13.18;9.80;;;;;;;;;;2090812;28;20025;-55
2023/09/06 04:24:41;;;;;;;14.38;9.52;;;;;;;;;;2091004;28;20085;-55
2023/09/06 04:25:44;;;;;;;12.18;9.70;;;;;;;;;;2082462;28;20044;-55
2023/09/06 04:26:48;;;;;;;13.20;9.85;;;;;;;;;;2083111;28;20429;-55
2023/09/06 04:27:49;;;;;;;15.50;10.13;;;;;;;;;;2090394;28;20037;-54
2023/09/06 04:28:49;;;;;;;13.43;10.15;;;;;;;;;;2089831;28;20382;-55
2023/09/06 04:29:52;;;;;;;14.30;10.15;;;;;;;;;;2082931;28;20385;-55
2023/09/06 04:30:53;;;;;;;14.70;10.82;;;;;;;;;;2082388;28;20044;-56
2023/09/06 04:31:57;;;;;;;15.80;10.35;;;;;;;;;;2090353;28;20045;-55
2023/09/06 04:32:58;;;;;;;13.30;10.55;;;;;;;;;;2082356;28;20064;-54
2023/09/06 04:34:00;;;;;;;14.05;10.02;;;;;;;;;;2082065;28;20052;-55
2023/09/06 04:35:01;;;;;;;14.75;10.90;;;;;;;;;;2090734;28;20052;-55
2023/09/06 04:36:04;;;;;;;18.55;11.80;;;;;;;;;;2089753;28;20432;-55
2023/09/06 04:37:04;;;;;;;15.98;11.20;;;;;;;;;;2090386;28;20048;-55
2023/09/06 04:38:09;;;;;;;14.55;11.15;;;;;;;;;;2089690;28;20266;-55
2023/09/06 04:39:10;;;;;;;16.67;12.10;;;;;;;;;;2083130;28;20501;-53
2023/09/06 04:40:13;;;;;;;18.42;11.65;;;;;;;;;;2082295;28;20045;-55
2023/09/06 04:41:18;;;;;;;18.25;11.15;;;;;;;;;;2082639;28;20042;-55
2023/09/06 04:42:32;;;;;;;15.93;12.13;;;;;;;;;;2083289;28;20660;-54
2023/09/06 04:43:33;;;;;;;15.55;11.48;;;;;;;;;;2090262;28;20052;-56
2023/09/06 04:44:35;;;;;;;15.13;11.60;;;;;;;;;;2090204;28;20045;-52
2023/09/06 04:45:37;;;;;;;13.55;11.48;;;;;;;;;;2090681;28;20041;-54
2023/09/06 04:46:38;;;;;;;13.70;11.07;;;;;;;;;;2090483;28;20044;-54
2023/09/06 04:47:43;;;;;;;15.52;10.45;;;;;;;;;;2090258;28;20514;-55
2023/09/06 04:48:44;;;;;;;15.25;11.30;;;;;;;;;;2090453;28;20033;-54
2023/09/06 04:49:46;;;;;;;12.02;9.35;;;;;;;;;;2090241;28;20029;-53
2023/09/06 04:50:47;;;;;;;13.40;9.27;;;;;;;;;;2082076;28;20029;-53
2023/09/06 04:51:49;;;;;;;13.20;9.45;;;;;;;;;;2082506;28;20417;-53
2023/09/06 04:52:52;;;;;;;12.60;9.25;;;;;;;;;;2082498;28;20502;-54
2023/09/06 04:53:54;;;;;;;13.35;8.68;;;;;;;;;;2082448;28;20041;-53
2023/09/06 04:55:01;;;;;;;11.57;8.18;;;;;;;;;;2082621;28;20048;-54
2023/09/06 04:56:04;;;;;;;13.10;8.38;;;;;;;;;;2082237;28;20029;-55
2023/09/06 04:57:16;;;;;;;12.52;8.95;;;;;;;;;;2083653;28;20038;-53
2023/09/06 04:58:18;;;;;;;10.63;7.95;;;;;;;;;;2090257;28;20029;-54
2023/09/06 04:59:18;;;;;;;11.27;8.30;;;;;;;;;;2090138;28;20378;-53
2023/09/06 05:00:30;;;;;;;14.45;7.93;;;;;;;;;;2089797;28;20080;-52
2023/09/06 05:01:31;;;;;;;12.23;7.72;;;;;;;;;;2090566;28;20036;-53
2023/09/06 05:02:31;;;;;;;10.98;7.72;;;;;;;;;;2091001;28;20064;-55
2023/09/06 05:03:33;;;;;;;13.23;8.25;;;;;;;;;;2090907;28;20480;-53
2023/09/06 05:04:36;;;;;;;10.00;7.13;;;;;;;;;;2090357;28;20037;-55
2023/09/06 05:05:37;;;;;;;12.07;6.93;;;;;;;;;;2090525;28;20055;-55
2023/09/06 05:06:38;;;;;;;10.38;7.53;;;;;;;;;;2089483;28;20037;-53
2023/09/06 05:07:39;;;;;;;9.73;7.20;;;;;;;;;;2081994;28;20081;-52
2023/09/06 05:08:41;;;;;;;12.63;7.93;;;;;;;;;;2090394;28;20029;-53
2023/09/06 05:09:47;;;;;;;14.32;7.22;;;;;;;;;;2089929;28;20043;-54
2023/09/06 05:10:51;;;;;;;10.73;7.35;;;;;;;;;;2081681;28;20041;-54
2023/09/06 05:11:53;;;;;;;12.63;7.65;;;;;;;;;;2082182;28;20041;-53
2023/09/06 05:12:55;;;;;;;10.35;7.30;;;;;;;;;;2082039;28;20034;-53
2023/09/06 05:13:56;;;;;;;10.35;7.30;;;;;;;;;;2081736;28;20037;-55
2023/09/06 05:14:58;;;;;;;9.48;6.97;;;;;;;;;;2090118;28;20036;-54
2023/09/06 05:16:00;;;;;;;13.32;7.57;;;;;;;;;;2089984;28;20037;-55
2023/09/06 05:17:01;;;;;;;11.73;8.23;;;;;;;;;;2082027;28;20046;-52
2023/09/06 05:18:02;;;;;;;11.98;7.70;;;;;;;;;;2081999;28;20046;-52
2023/09/06 05:19:03;;;;;;;12.40;7.60;;;;;;;;;;2089989;28;20056;-55
2023/09/06 05:20:25;;;;;;;14.07;7.32;;;;;;;;;;2090300;28;20033;-56
2023/09/06 05:21:26;;;;;;;11.88;7.50;;;;;;;;;;2092018;28;20041;-56
2023/09/06 05:22:27;;;;;;;11.27;7.47;;;;;;;;;;2090248;28;20041;-56
2023/09/06 05:23:28;;;;;;;11.32;7.38;;;;;;;;;;2081858;28;20056;-55
2023/09/06 05:24:29;;;;;;;12.25;7.80;;;;;;;;;;2090170;28;20040;-55
2023/09/06 05:25:30;;;;;;;9.32;6.55;;;;;;;;;;2090275;28;20501;-55
2023/09/06 05:26:33;;;;;;;13.25;7.10;;;;;;;;;;2090741;28;20412;-54
2023/09/06 05:27:34;;;;;;;9.77;7.28;;;;;;;;;;2089862;28;20137;-55
2023/09/06 05:28:35;;;;;;;10.95;7.10;;;;;;;;;;2090061;28;20524;-56
2023/09/06 05:29:37;;;;;;;14.43;7.22;;;;;;;;;;2089812;28;20501;-55
2023/09/06 05:30:42;;;;;;;11.02;8.40;;;;;;;;;;2082476;28;20029;-55
2023/09/06 05:31:45;;;;;;;11.18;7.57;;;;;;;;;;2083073;28;20056;-55
2023/09/06 05:32:46;;;;;;;9.57;7.38;;;;;;;;;;2081922;28;20044;-55
2023/09/06 05:33:47;;;;;;;10.35;7.90;;;;;;;;;;2090120;28;20040;-55
2023/09/06 05:34:49;;;;;;;12.75;7.63;;;;;;;;;;2090367;28;20045;-54
2023/09/06 05:35:50;;;;;;;9.90;7.97;;;;;;;;;;2090080;28;20040;-56
2023/09/06 05:36:51;;;;;;;12.63;7.82;;;;;;;;;;2081797;28;20425;-55
2023/09/06 05:37:52;;;;;;;12.60;8.52;;;;;;;;;;2081584;28;20081;-55
2023/09/06 05:38:53;;;;;;;10.65;8.35;;;;;;;;;;2090080;28;20037;-56
2023/09/06 05:39:56;;;;;;;11.80;7.38;;;;;;;;;;2081510;28;20405;-55
2023/09/06 05:40:57;;;;;;;13.05;8.55;;;;;;;;;;2082147;28;20045;-54
2023/09/06 05:42:04;;;;;;;9.85;7.45;;;;;;;;;;2082492;28;20060;-55
2023/09/06 05:43:05;;;;;;;11.65;8.25;;;;;;;;;;2081688;28;20111;-56
2023/09/06 05:44:08;;;;;;;11.48;8.05;;;;;;;;;;2081443;28;20044;-55
2023/09/06 05:45:12;;;;;;;11.23;8.38;;;;;;;;;;2081542;28;20087;-55
2023/09/06 05:46:15;;;;;;;13.50;8.80;;;;;;;;;;2089859;28;20041;-55
2023/09/06 05:47:15;;;;;;;12.65;7.50;;;;;;;;;;2089721;28;20045;-55
2023/09/06 05:48:17;;;;;;;12.40;7.68;;;;;;;;;;2089635;28;20037;-55
2023/09/06 05:49:18;;;;;;;13.48;8.00;;;;;;;;;;2089637;28;20041;-55
2023/09/06 05:50:19;;;;;;;11.55;8.10;;;;;;;;;;2081749;28;20485;-54
2023/09/06 05:51:21;;;;;;;10.25;7.65;;;;;;;;;;2081899;28;20563;-54
2023/09/06 05:52:23;;;;;;;9.65;7.20;;;;;;;;;;2081964;28;20497;-54
2023/09/06 05:53:26;;;;;;;10.35;7.50;;;;;;;;;;2081705;28;20038;-52
2023/09/06 05:54:26;;;;;;;9.50;7.15;;;;;;;;;;2089987;28;20033;-55
2023/09/06 05:55:28;;;;;;;9.90;7.00;;;;;;;;;;2090567;28;20037;-55
2023/09/06 05:56:29;;;;;;;9.80;7.15;;;;;;;;;;2090141;28;20037;-55
2023/09/06 05:57:31;;;;;;;12.50;7.47;;;;;;;;;;2090001;28;20033;-57
2023/09/06 05:58:37;;;;;;;9.27;6.25;;;;;;;;;;2089940;28;20053;-53
2023/09/06 05:59:39;;;;;;;8.77;6.68;;;;;;;;;;2082584;28;20037;-55
2023/09/06 06:00:41;;;;;;;9.40;7.35;;;;;;;;;;2089674;28;20438;-55
2023/09/06 06:01:42;;;;;;;11.73;7.03;;;;;;;;;;2088913;28;20041;-54
2023/09/06 06:02:44;;;;;;;11.70;6.95;;;;;;;;;;2089938;28;20420;-55
2023/09/06 06:03:45;;;;;;;10.75;7.68;;;;;;;;;;2089481;28;20052;-55
2023/09/06 06:04:46;;;;;;;11.75;6.90;;;;;;;;;;2081448;28;20044;-55
2023/09/06 06:05:46;;;;;;;9.52;6.93;;;;;;;;;;2089588;28;20037;-55
2023/09/06 06:06:47;;;;;;;7.57;6.55;;;;;;;;;;2097451;28;20499;-54
2023/09/06 06:07:48;;;;;;;9.07;6.80;;;;;;;;;;2089802;28;20037;-55